LTFH Airport Information

Runway Information
Runway 13 Length 9843 ft width 148 ft
Elevation 10 ft Threshold 0 ft Heading 134
Runway 31 Length 9843 ft Width 148 ft
Elevation 17 ft Threshold 0 ft Heading 314
Airport Frequencies
Type APP Name APP Frequency 118.175 MHZ
Type ATIS Name ATIS Frequency 129.35 MHZ
Type GND Name GND Frequency 121.7 MHZ
Type TWR Name TWR Frequency 118.35 MHZ
Airport Navaids
Type NDB Name Carsamba Frequency 325 KHZ
Type VOR-DME Name Carsamba Frequency 112800 KHZ
Airport Weather Information & NOTAM
ADDS - METARS form results

(0253 UTC 07 July 2020)
Data provider http://aviationweather.gov/metar/data/
 
Forecast for: LTFH (CARSAMBA , TR)
Text: TAF LTFH 070140Z 0703/0712 VRB02KT 9999 SCT036
Forecast period: 0300 to 1200 UTC 07 July 2020
Forecast type: FROM: standard forecast or significant change
Winds: variable direction winds at 2 MPH (2 knots; 1.0 m/s)
Visibility: 6 or more miles 10+ km)
Ceiling: at least 12,000 feet AGL
Clouds: scattered clouds at 3600 feet AGL
Weather: no significant weather forecast for this period